Time;durP1;ratioP1;P1;durP2;ratioP2;P2;SDS_P1;SDS_P2;PMS_P1;PMS_P2;Temp;Humidity;BMP_temperature;BMP_pressure;BME280_temperature;BME280_humidity;BME280_pressure;Samples;Min_cycle;Max_cycle;Signal;HPM_P1;HPM_P2
2023/07/23 00:00:47;;;;;;;;;;;;;;;22.13;52.61;100593.34;4967674;28;4242;-76
2023/07/23 00:03:15;;;;;;;;;;;;;;;22.12;52.39;100588.25;4970499;28;4129;-76
2023/07/23 00:05:42;;;;;;;;;;;;;;;22.10;52.21;100586.00;4964045;28;4129;-76
2023/07/23 00:08:09;;;;;;;;;;;;;;;22.11;52.35;100575.97;4969856;28;4025;-76
2023/07/23 00:10:35;;;;;;;;;;;;;;;22.12;52.33;100577.44;4984839;28;4328;-76
2023/07/23 00:13:02;;;;;;;;;;;;;;;22.11;52.46;100575.97;4967297;28;4038;-76
2023/07/23 00:15:28;;;;;;;;;;;;;;;22.11;52.44;100575.97;4967982;28;4161;-76
2023/07/23 00:17:57;;;;;;;;;;;;;;;22.10;52.58;100568.72;4971681;28;4140;-76
2023/07/23 00:20:23;;;;;;;;;;;;;;;22.10;52.62;100562.94;4972878;28;4152;-74
2023/07/23 00:22:49;;;;;;;;;;;;;;;22.10;52.35;100562.22;4973063;28;4156;-75
2023/07/23 00:25:16;;;;;;;;;;;;;;;22.09;52.67;100561.47;4973560;28;4636;-75
2023/07/23 00:27:42;;;;;;;;;;;;;;;22.09;52.38;100560.75;4969393;28;4140;-76
2023/07/23 00:30:09;;;;;;;;;;;;;;;22.09;52.22;100547.06;4966373;28;4195;-76
2023/07/23 00:32:35;;;;;;;;;;;;;;;22.09;52.38;100549.94;4967596;28;4188;-76
2023/07/23 00:35:02;;;;;;;;;;;;;;;22.08;52.46;100548.47;4970591;28;4058;-76
2023/07/23 00:37:29;;;;;;;;;;;;;;;22.09;52.41;100537.69;4969140;28;4176;-75
2023/07/23 00:39:55;;;;;;;;;;;;;;;22.09;52.61;100549.22;4971934;28;4026;-75
2023/07/23 00:42:22;;;;;;;;;;;;;;;22.07;52.46;100541.22;4976174;28;4157;-72
2023/07/23 00:44:49;;;;;;;;;;;;;;;22.06;52.54;100545.53;4966204;28;4172;-76
2023/07/23 00:47:16;;;;;;;;;;;;;;;22.06;52.57;100545.53;4970605;28;4196;-76
2023/07/23 00:49:43;;;;;;;;;;;;;;;22.05;52.37;100532.50;4970417;28;4180;-75
2023/07/23 00:52:09;;;;;;;;;;;;;;;22.07;52.42;100531.84;4970537;28;4146;-76
2023/07/23 00:54:35;;;;;;;;;;;;;;;22.08;52.63;100528.28;4965587;28;4354;-76
2023/07/23 00:57:02;;;;;;;;;;;;;;;22.06;52.64;100533.22;4972177;28;4522;-76
2023/07/23 00:59:30;;;;;;;;;;;;;;;22.04;52.38;100533.91;4985871;28;5020;-76
2023/07/23 01:01:57;;;;;;;;;;;;;;;22.05;52.39;100515.19;4986629;28;4162;-74
2023/07/23 01:04:23;;;;;;;;;;;;;;;22.07;52.45;100517.41;4974239;28;4213;-76
2023/07/23 01:06:50;;;;;;;;;;;;;;;22.05;52.57;100520.97;4969137;28;4164;-76
2023/07/23 01:09:16;;;;;;;;;;;;;;;22.05;52.58;100514.47;4985444;28;4182;-76
2023/07/23 01:11:43;;;;;;;;;;;;;;;22.05;52.62;100514.47;4968808;28;4152;-75
2023/07/23 01:14:09;;;;;;;;;;;;;;;22.03;52.47;100515.13;4969966;28;4171;-76
2023/07/23 01:16:35;;;;;;;;;;;;;;;22.02;52.67;100522.31;4968197;28;4228;-76
2023/07/23 01:19:02;;;;;;;;;;;;;;;22.04;52.56;100518.78;4983778;28;4257;-76
2023/07/23 01:21:29;;;;;;;;;;;;;;;22.03;52.26;100512.25;4983652;28;4142;-76
2023/07/23 01:23:55;;;;;;;;;;;;;;;22.03;52.36;100512.25;4966264;28;4193;-76
2023/07/23 01:26:22;;;;;;;;;;;;;;;22.03;52.65;100509.38;4966580;28;4347;-76
2023/07/23 01:28:48;;;;;;;;;;;;;;;22.04;52.46;100525.25;4962597;28;3981;-76
2023/07/23 01:31:15;;;;;;;;;;;;;;;22.03;52.69;100523.03;4969290;28;4115;-76
2023/07/23 01:33:41;;;;;;;;;;;;;;;22.02;52.42;100528.09;4985231;28;4050;-76
2023/07/23 01:36:08;;;;;;;;;;;;;;;22.02;52.63;100545.38;4969183;28;4116;-76
2023/07/23 01:38:34;;;;;;;;;;;;;;;22.02;52.66;100551.16;4965719;28;4213;-76
2023/07/23 01:41:01;;;;;;;;;;;;;;;22.02;52.46;100554.03;4984126;28;4080;-76
2023/07/23 01:43:27;;;;;;;;;;;;;;;22.01;52.30;100561.19;4985441;28;4281;-74
2023/07/23 01:45:54;;;;;;;;;;;;;;;22.00;52.63;100562.59;4974378;28;4461;-76
2023/07/23 01:48:20;;;;;;;;;;;;;;;22.01;52.39;100566.94;4980956;28;4077;-76
2023/07/23 01:50:47;;;;;;;;;;;;;;;22.02;52.67;100571.31;4968561;28;4124;-76
2023/07/23 01:53:13;;;;;;;;;;;;;;;22.01;52.53;100572.72;4971967;28;4204;-76
2023/07/23 01:55:40;;;;;;;;;;;;;;;22.01;52.43;100564.06;4970668;28;4175;-76
2023/07/23 01:58:06;;;;;;;;;;;;;;;22.01;52.43;100564.06;4966465;28;4045;-76
2023/07/23 02:00:33;;;;;;;;;;;;;;;22.01;52.59;100572.72;4984470;28;4480;-76
2023/07/23 02:02:59;;;;;;;;;;;;;;;22.02;52.64;100577.09;4985655;28;4250;-76
2023/07/23 02:05:26;;;;;;;;;;;;;;;21.99;52.49;100575.56;4974614;28;4150;-76
2023/07/23 02:07:52;;;;;;;;;;;;;;;22.00;52.55;100582.06;4982723;28;4065;-75
2023/07/23 02:10:19;;;;;;;;;;;;;;;21.99;52.70;100574.78;4970515;28;4221;-76
2023/07/23 02:12:46;;;;;;;;;;;;;;;22.00;52.45;100576.28;4983453;28;4137;-76
2023/07/23 02:15:12;;;;;;;;;;;;;;;21.99;52.51;100575.56;4965675;28;4037;-76
2023/07/23 02:17:39;;;;;;;;;;;;;;;22.00;52.62;100576.28;4984409;28;4159;-76
2023/07/23 02:20:06;;;;;;;;;;;;;;;21.98;52.49;100581.97;4968066;28;5162;-76
2023/07/23 02:22:32;;;;;;;;;;;;;;;21.98;52.57;100585.59;4967882;28;4206;-76
2023/07/23 02:24:59;;;;;;;;;;;;;;;21.99;52.44;100580.56;4982887;28;4604;-76
2023/07/23 02:27:25;;;;;;;;;;;;;;;21.98;52.58;100576.94;4968332;28;4189;-75
2023/07/23 02:29:52;;;;;;;;;;;;;;;21.97;52.44;100558.19;4967635;28;4280;-76
2023/07/23 02:32:18;;;;;;;;;;;;;;;21.98;52.45;100570.44;4968195;28;4050;-76
2023/07/23 02:34:46;;;;;;;;;;;;;;;21.96;52.70;100571.09;4984464;28;4129;-76
2023/07/23 02:37:12;;;;;;;;;;;;;;;21.96;52.62;100583.38;4965559;28;4234;-76
2023/07/23 02:39:39;;;;;;;;;;;;;;;21.96;52.72;100568.22;4981442;28;4001;-76
2023/07/23 02:42:05;;;;;;;;;;;;;;;21.97;52.77;100572.59;4980495;28;4261;-76
2023/07/23 02:44:31;;;;;;;;;;;;;;;21.97;52.66;100578.38;4981896;28;4203;-76
2023/07/23 02:46:58;;;;;;;;;;;;;;;21.95;52.67;100581.91;4966868;28;4061;-76
2023/07/23 02:49:24;;;;;;;;;;;;;;;21.96;52.55;100588.41;4970936;28;4184;-76
2023/07/23 02:51:50;;;;;;;;;;;;;;;21.95;52.79;100592.69;4968356;28;4200;-76
2023/07/23 02:54:17;;;;;;;;;;;;;;;21.95;52.89;100592.69;4982375;28;4239;-76
2023/07/23 02:56:43;;;;;;;;;;;;;;;21.97;52.83;100601.44;4965984;28;4134;-70
2023/07/23 02:59:10;;;;;;;;;;;;;;;21.96;52.66;100594.16;4963768;28;4168;-66
2023/07/23 03:01:36;;;;;;;;;;;;;;;21.95;53.02;100592.69;4964872;28;4195;-70
2023/07/23 03:04:03;;;;;;;;;;;;;;;21.95;52.68;100595.59;4966532;28;4036;-70
2023/07/23 03:06:29;;;;;;;;;;;;;;;21.94;52.85;100596.97;4966267;28;5074;-71
2023/07/23 03:08:55;;;;;;;;;;;;;;;21.95;52.61;100598.47;4968307;28;4200;-70
2023/07/23 03:11:22;;;;;;;;;;;;;;;21.93;52.74;100584.72;4971546;28;4043;-70
2023/07/23 03:13:48;;;;;;;;;;;;;;;21.93;52.59;100581.81;4963527;28;4175;-70
2023/07/23 03:16:15;;;;;;;;;;;;;;;21.94;52.64;100585.44;4967521;28;4220;-70
2023/07/23 03:18:41;;;;;;;;;;;;;;;21.94;52.92;100580.44;4965919;28;4296;-70
2023/07/23 03:21:08;;;;;;;;;;;;;;;21.94;52.96;100585.44;4966866;28;4038;-70
2023/07/23 03:23:35;;;;;;;;;;;;;;;21.95;52.81;100584.06;4963132;28;4119;-70
2023/07/23 03:26:01;;;;;;;;;;;;;;;21.95;52.60;100586.94;4966511;28;4177;-70
2023/07/23 03:28:28;;;;;;;;;;;;;;;21.95;52.96;100592.69;4964412;28;4173;-70
2023/07/23 03:30:54;;;;;;;;;;;;;;;21.95;52.89;100581.16;4967718;28;3993;-70
2023/07/23 03:33:21;;;;;;;;;;;;;;;21.95;52.70;100592.69;4964469;28;4154;-71
2023/07/23 03:35:47;;;;;;;;;;;;;;;21.93;52.75;100596.25;4966692;28;4260;-70
2023/07/23 03:38:14;;;;;;;;;;;;;;;21.94;52.65;100596.97;4964287;28;4162;-70
2023/07/23 03:40:40;;;;;;;;;;;;;;;21.94;52.67;100588.31;4968039;28;5120;-71
2023/07/23 03:43:07;;;;;;;;;;;;;;;21.93;52.58;100590.47;4979408;28;4059;-70
2023/07/23 03:45:33;;;;;;;;;;;;;;;21.93;52.67;100583.97;4974104;28;4193;-70
2023/07/23 03:48:00;;;;;;;;;;;;;;;21.93;52.80;100592.63;4971113;28;4258;-70
2023/07/23 03:50:28;;;;;;;;;;;;;;;21.91;52.81;100584.63;4984173;28;4223;-70
2023/07/23 03:52:54;;;;;;;;;;;;;;;21.93;52.99;100592.63;4972132;28;4127;-71
2023/07/23 03:55:21;;;;;;;;;;;;;;;21.92;53.05;100582.47;4970384;28;4156;-70
2023/07/23 03:57:47;;;;;;;;;;;;;;;21.93;52.83;100583.97;4968139;28;4183;-71
2023/07/23 04:00:14;;;;;;;;;;;;;;;21.92;52.80;100585.38;4970875;28;4190;-71
2023/07/23 04:02:41;;;;;;;;;;;;;;;21.92;52.75;100585.38;4970960;28;4290;-70
2023/07/23 04:05:08;;;;;;;;;;;;;;;21.91;52.94;100581.03;4971724;28;4158;-71
2023/07/23 04:07:34;;;;;;;;;;;;;;;21.91;52.77;100575.25;4968262;28;4210;-70
2023/07/23 04:10:03;;;;;;;;;;;;;;;21.91;53.05;100576.00;4970372;28;4035;-71
2023/07/23 04:12:33;;;;;;;;;;;;;;;21.92;53.03;100582.47;4968814;28;4103;-70
2023/07/23 04:15:00;;;;;;;;;;;;;;;21.91;52.80;100581.03;4971435;28;4222;-71
2023/07/23 04:17:27;;;;;;;;;;;;;;;21.91;52.79;100581.75;4976357;28;4205;-70
2023/07/23 04:19:53;;;;;;;;;;;;;;;21.91;52.77;100581.03;4985573;28;4210;-70
2023/07/23 04:22:20;;;;;;;;;;;;;;;21.91;52.97;100587.53;4968218;28;4176;-71
2023/07/23 04:24:46;;;;;;;;;;;;;;;21.89;52.98;100580.94;4967563;28;4622;-70
2023/07/23 04:27:12;;;;;;;;;;;;;;;21.89;53.03;100580.94;4970137;28;4091;-70
2023/07/23 04:29:39;;;;;;;;;;;;;;;21.89;53.00;100573.03;4984771;28;4206;-71
2023/07/23 04:32:05;;;;;;;;;;;;;;;21.89;53.17;100567.25;4971661;28;4082;-71
2023/07/23 04:34:32;;;;;;;;;;;;;;;21.89;53.01;100569.41;4967919;28;4135;-70
2023/07/23 04:36:58;;;;;;;;;;;;;;;21.89;53.14;100564.38;4970341;28;4110;-70
2023/07/23 04:39:24;;;;;;;;;;;;;;;21.90;53.13;100556.50;4969097;28;4054;-70
2023/07/23 04:41:51;;;;;;;;;;;;;;;21.90;53.20;100574.53;4968683;28;4184;-71
2023/07/23 04:44:17;;;;;;;;;;;;;;;21.90;53.17;100573.78;4968286;28;4060;-71
2023/07/23 04:46:44;;;;;;;;;;;;;;;21.90;53.06;100562.25;4970909;28;4082;-71
2023/07/23 04:49:10;;;;;;;;;;;;;;;21.90;52.99;100574.53;4970830;28;4200;-70
2023/07/23 04:51:36;;;;;;;;;;;;;;;21.90;53.05;100582.44;4971005;28;4184;-71
2023/07/23 04:54:03;;;;;;;;;;;;;;;21.88;52.96;100580.22;4973074;28;4164;-70
2023/07/23 04:56:29;;;;;;;;;;;;;;;21.90;53.07;100582.44;4968732;28;4224;-70
2023/07/23 04:58:56;;;;;;;;;;;;;;;21.90;53.08;100579.56;4968218;28;4286;-71
2023/07/23 05:01:22;;;;;;;;;;;;;;;21.88;53.26;100583.09;4969564;28;4132;-70
2023/07/23 05:03:48;;;;;;;;;;;;;;;21.89;52.88;100578.06;4970921;28;4103;-71
2023/07/23 05:06:15;;;;;;;;;;;;;;;21.87;53.25;100581.59;4970866;28;4204;-71
2023/07/23 05:08:41;;;;;;;;;;;;;;;21.88;53.13;100577.34;4966229;28;4138;-70
2023/07/23 05:11:08;;;;;;;;;;;;;;;21.89;53.29;100566.53;4970332;28;4061;-71
2023/07/23 05:13:35;;;;;;;;;;;;;;;21.88;52.84;100570.84;4968758;28;4971;-70
2023/07/23 05:16:02;;;;;;;;;;;;;;;21.88;53.28;100570.84;4969862;28;4219;-71
2023/07/23 05:18:29;;;;;;;;;;;;;;;21.85;53.20;100555.63;4967788;28;4051;-70
2023/07/23 05:20:55;;;;;;;;;;;;;;;21.87;52.96;100569.34;4971302;28;4038;-70
2023/07/23 05:23:22;;;;;;;;;;;;;;;21.88;53.13;100567.94;4974101;28;4142;-71
2023/07/23 05:25:48;;;;;;;;;;;;;;;21.88;53.27;100570.84;4968918;28;4215;-70
2023/07/23 05:28:15;;;;;;;;;;;;;;;21.87;53.27;100570.06;4969149;28;4137;-70
2023/07/23 05:30:41;;;;;;;;;;;;;;;21.86;53.43;100573.63;4968918;28;4168;-70
2023/07/23 05:33:07;;;;;;;;;;;;;;;21.87;53.08;100580.88;4970685;28;4209;-70
2023/07/23 05:35:34;;;;;;;;;;;;;;;21.85;53.45;100572.91;4966790;28;4058;-71
2023/07/23 05:38:01;;;;;;;;;;;;;;;21.86;53.12;100567.88;4969681;28;4053;-71
2023/07/23 05:40:27;;;;;;;;;;;;;;;21.86;53.48;100557.06;4967872;28;4307;-70
2023/07/23 05:42:53;;;;;;;;;;;;;;;21.86;53.02;100570.75;4968584;28;4070;-70
2023/07/23 05:45:20;;;;;;;;;;;;;;;21.84;53.07;100570.69;4971019;28;4192;-71
2023/07/23 05:47:46;;;;;;;;;;;;;;;21.84;53.43;100570.69;4971050;28;4040;-71
2023/07/23 05:50:13;;;;;;;;;;;;;;;21.87;53.37;100569.34;4972347;28;4266;-70
2023/07/23 05:52:39;;;;;;;;;;;;;;;21.84;53.21;100557.00;4972423;28;4147;-70
2023/07/23 05:55:06;;;;;;;;;;;;;;;21.85;53.25;100552.72;4973396;28;4376;-71
2023/07/23 05:57:32;;;;;;;;;;;;;;;21.84;53.12;100553.38;4968084;28;4062;-70
2023/07/23 05:59:59;;;;;;;;;;;;;;;21.85;53.36;100549.09;4971456;28;4371;-70
2023/07/23 06:02:25;;;;;;;;;;;;;;;21.85;53.44;100549.09;4966425;28;4183;-70
2023/07/23 06:04:52;;;;;;;;;;;;;;;21.84;53.37;100541.84;4966739;28;4158;-70
2023/07/23 06:07:18;;;;;;;;;;;;;;;21.86;53.17;100544.81;4967218;28;4224;-70
2023/07/23 06:09:44;;;;;;;;;;;;;;;21.86;53.40;100541.94;4967781;28;4230;-70
2023/07/23 06:12:11;;;;;;;;;;;;;;;21.84;53.06;100538.97;4966056;28;4166;-70
2023/07/23 06:14:37;;;;;;;;;;;;;;;21.83;53.31;100531.72;4966888;28;4242;-70
2023/07/23 06:17:04;;;;;;;;;;;;;;;21.83;53.56;100525.97;4962466;28;4193;-70
2023/07/23 06:19:30;;;;;;;;;;;;;;;21.83;53.34;100518.06;4967806;28;4221;-70
2023/07/23 06:21:57;;;;;;;;;;;;;;;21.82;53.21;100522.34;4966247;28;4149;-70
2023/07/23 06:24:23;;;;;;;;;;;;;;;21.84;53.31;100518.81;4967279;28;4136;-69
2023/07/23 06:26:50;;;;;;;;;;;;;;;21.84;53.47;100530.31;4967714;28;4065;-70
2023/07/23 06:29:16;;;;;;;;;;;;;;;21.82;53.09;100524.50;4968063;28;4098;-70
2023/07/23 06:31:43;;;;;;;;;;;;;;;21.83;53.40;100528.84;4968989;28;4160;-70
2023/07/23 06:34:09;;;;;;;;;;;;;;;21.84;53.24;100530.31;4969825;28;5218;-71
2023/07/23 06:36:36;;;;;;;;;;;;;;;21.85;53.27;100528.91;4968755;28;4251;-70
2023/07/23 06:39:02;;;;;;;;;;;;;;;21.83;53.41;100537.47;4967557;28;4208;-70
2023/07/23 06:41:29;;;;;;;;;;;;;;;21.83;53.18;100528.84;4963292;28;4157;-70
2023/07/23 06:43:55;;;;;;;;;;;;;;;21.83;53.27;100525.97;4965098;28;4145;-71
2023/07/23 06:46:22;;;;;;;;;;;;;;;21.83;53.38;100523.84;4970730;28;4148;-71
2023/07/23 06:48:49;;;;;;;;;;;;;;;21.84;53.47;100524.56;4966528;28;4838;-71
2023/07/23 06:51:15;;;;;;;;;;;;;;;21.84;53.17;100521.69;4966473;28;4160;-70
2023/07/23 06:53:42;;;;;;;;;;;;;;;21.83;53.38;100523.06;4965120;28;3992;-70
2023/07/23 06:56:09;;;;;;;;;;;;;;;21.83;53.25;100523.06;4966472;28;4296;-71
2023/07/23 06:58:36;;;;;;;;;;;;;;;21.84;53.54;100524.56;4963311;28;5937;-69
2023/07/23 07:01:02;;;;;;;;;;;;;;;21.84;53.20;100525.28;4968032;28;4378;-70
2023/07/23 07:03:28;;;;;;;;;;;;;;;21.87;53.30;100523.22;4965154;28;4330;-70
2023/07/23 07:05:55;;;;;;;;;;;;;;;21.89;53.30;100520.41;4964943;28;4043;-70
2023/07/23 07:08:21;;;;;;;;;;;;;;;21.90;53.52;100516.13;4969173;28;4174;-70
2023/07/23 07:10:49;;;;;;;;;;;;;;;21.90;53.12;100527.66;4966699;28;4077;-70
2023/07/23 07:13:16;;;;;;;;;;;;;;;21.90;53.58;100516.13;4965954;28;4037;-70
2023/07/23 07:15:42;;;;;;;;;;;;;;;21.89;53.54;100520.41;4968339;28;4547;-70
2023/07/23 07:18:09;;;;;;;;;;;;;;;21.89;53.57;100520.41;4965413;28;4310;-70
2023/07/23 07:20:36;;;;;;;;;;;;;;;21.88;53.29;100510.31;4969814;28;4144;-69
2023/07/23 07:23:02;;;;;;;;;;;;;;;21.88;53.56;100513.91;4965188;28;4018;-70
2023/07/23 07:25:28;;;;;;;;;;;;;;;21.88;53.37;100518.94;4967478;28;4148;-70
2023/07/23 07:27:55;;;;;;;;;;;;;;;21.88;53.52;100513.19;4967060;28;4207;-70
2023/07/23 07:30:21;;;;;;;;;;;;;;;21.88;53.45;100524.72;4970936;28;4058;-70
2023/07/23 07:32:48;;;;;;;;;;;;;;;21.88;53.57;100510.31;4969827;28;3930;-70
2023/07/23 07:35:14;;;;;;;;;;;;;;;21.89;53.60;100526.19;4965379;28;4615;-70
2023/07/23 07:37:40;;;;;;;;;;;;;;;21.89;53.68;100514.66;4966232;28;5074;-70
2023/07/23 07:40:09;;;;;;;;;;;;;;;21.88;53.54;100528.31;4973393;28;4215;-70
2023/07/23 07:42:35;;;;;;;;;;;;;;;21.89;53.65;100526.19;4966201;28;4183;-70
2023/07/23 07:45:02;;;;;;;;;;;;;;;21.88;53.66;100513.19;4964155;28;4142;-70
2023/07/23 07:47:28;;;;;;;;;;;;;;;21.89;53.20;100494.47;4969020;28;4141;-70
2023/07/23 07:49:55;;;;;;;;;;;;;;;21.88;53.40;100505.25;4966614;28;4184;-70
2023/07/23 07:52:21;;;;;;;;;;;;;;;21.89;53.47;100497.34;4964733;28;4055;-70
2023/07/23 07:54:48;;;;;;;;;;;;;;;21.89;53.25;100485.81;4961556;28;4087;-70
2023/07/23 07:57:14;;;;;;;;;;;;;;;21.88;53.63;100485.09;4968182;28;4163;-70
2023/07/23 07:59:41;;;;;;;;;;;;;;;21.88;53.37;100476.44;4965403;28;4180;-70
2023/07/23 08:02:08;;;;;;;;;;;;;;;21.88;53.41;100484.34;4967735;28;4065;-70
2023/07/23 08:04:34;;;;;;;;;;;;;;;21.88;53.33;100475.72;4962575;28;4171;-70
2023/07/23 08:07:02;;;;;;;;;;;;;;;21.88;53.29;100475.72;4968927;28;4041;-70
2023/07/23 08:09:29;;;;;;;;;;;;;;;21.89;53.52;100480.06;4967615;28;4984;-69
2023/07/23 08:11:55;;;;;;;;;;;;;;;21.88;53.62;100478.59;4964467;28;4288;-70
2023/07/23 08:14:21;;;;;;;;;;;;;;;21.88;53.65;100472.81;4972668;28;3910;-70
2023/07/23 08:16:52;;;;;;;;;;;;;;;21.88;53.71;100476.44;4970874;28;4043;-71
2023/07/23 08:19:18;;;;;;;;;;;;;;;21.90;53.46;100475.78;4963894;28;4156;-70
2023/07/23 08:21:45;;;;;;;;;;;;;;;21.89;53.72;100474.28;4964118;28;4222;-70
2023/07/23 08:24:11;;;;;;;;;;;;;;;21.90;53.55;100472.91;4966291;28;4226;-70
2023/07/23 08:26:39;;;;;;;;;;;;;;;21.88;53.44;100473.56;4980179;28;4165;-70
2023/07/23 08:29:06;;;;;;;;;;;;;;;21.88;53.10;100478.59;4966036;28;4091;-70
2023/07/23 08:31:32;;;;;;;;;;;;;;;21.89;53.59;100474.28;4967907;28;4156;-70
2023/07/23 08:33:59;;;;;;;;;;;;;;;21.88;53.35;100473.56;4973012;28;3957;-70
2023/07/23 08:36:26;;;;;;;;;;;;;;;21.88;53.66;100476.44;4971157;28;4227;-70
2023/07/23 08:38:53;;;;;;;;;;;;;;;21.89;53.62;100459.88;4968013;28;4263;-70
2023/07/23 08:41:24;;;;;;;;;;;;;;;21.88;53.70;100467.78;4969720;28;4031;-70
2023/07/23 08:44:04;;;;;;;;;;;;;;;21.88;53.41;100462.03;4972258;28;4136;-70
2023/07/23 08:46:31;;;;;;;;;;;;;;;21.88;53.58;100469.94;4983662;28;4051;-71
2023/07/23 08:49:03;;;;;;;;;;;;;;;21.89;53.33;100468.53;4959475;28;4154;-70
2023/07/23 08:51:34;;;;;;;;;;;;;;;21.88;53.62;100467.78;4964857;28;4186;-76
2023/07/23 08:54:01;;;;;;;;;;;;;;;21.88;53.86;100464.19;4972827;28;3974;-78
2023/07/23 08:56:27;;;;;;;;;;;;;;;21.84;54.14;100461.16;4972231;28;4126;-78
2023/07/23 08:58:54;;;;;;;;;;;;;;;21.84;54.16;100449.63;4984098;28;4247;-79
2023/07/23 09:01:20;;;;;;;;;;;;;;;21.89;54.24;100457.00;4968458;28;4224;-72
2023/07/23 09:03:46;;;;;;;;;;;;;;;21.91;54.31;100454.19;4971727;28;4100;-66
2023/07/23 09:06:13;;;;;;;;;;;;;;;21.94;54.31;100444.94;4970127;28;4114;-66
2023/07/23 09:08:39;;;;;;;;;;;;;;;21.96;54.27;100445.00;4976472;28;4291;-66
2023/07/23 09:11:09;;;;;;;;;;;;;;;21.93;54.63;100451.38;4968985;28;4232;-66
2023/07/23 09:13:35;;;;;;;;;;;;;;;21.95;54.66;100452.19;4971598;28;4103;-66
2023/07/23 09:16:02;;;;;;;;;;;;;;;21.96;54.36;100447.13;4968233;28;4150;-66
2023/07/23 09:18:28;;;;;;;;;;;;;;;22.02;54.39;100446.63;4984790;28;4078;-67
2023/07/23 09:20:56;;;;;;;;;;;;;;;22.06;54.51;100450.38;4964358;28;3964;-66
2023/07/23 09:23:26;;;;;;;;;;;;;;;22.06;54.30;100447.50;4968465;28;4088;-68
2023/07/23 09:25:53;;;;;;;;;;;;;;;22.10;53.88;100441.84;4974345;28;4067;-66
2023/07/23 09:28:22;;;;;;;;;;;;;;;22.10;54.06;100436.06;4966551;28;4259;-67
2023/07/23 09:30:52;;;;;;;;;;;;;;;22.08;53.69;100441.78;4967551;28;4083;-66
2023/07/23 09:33:19;;;;;;;;;;;;;;;22.07;53.99;100425.88;4967970;28;4223;-66
2023/07/23 09:35:45;;;;;;;;;;;;;;;22.08;53.67;100427.38;4970836;28;4309;-66
2023/07/23 09:38:12;;;;;;;;;;;;;;;22.08;53.29;100424.50;4969642;28;3947;-66
2023/07/23 09:40:39;;;;;;;;;;;;;;;22.07;53.16;100414.34;4969027;28;4121;-66
2023/07/23 09:43:06;;;;;;;;;;;;;;;22.08;53.13;100421.59;4967481;28;4378;-66
2023/07/23 09:45:36;;;;;;;;;;;;;;;22.11;52.92;100419.53;4966611;28;4394;-65
2023/07/23 09:48:02;;;;;;;;;;;;;;;22.11;52.95;100419.53;4971622;28;4345;-66
2023/07/23 09:50:41;;;;;;;;;;;;;;;22.10;52.53;100418.78;4972501;28;4150;-66
2023/07/23 09:53:08;;;;;;;;;;;;;;;22.11;52.53;100417.38;4976199;28;4159;-66
2023/07/23 09:55:35;;;;;;;;;;;;;;;22.13;51.90;100408.06;4967258;28;4159;-66
2023/07/23 09:58:01;;;;;;;;;;;;;;;22.13;51.92;100414.56;4968868;28;4671;-67
2023/07/23 10:00:28;;;;;;;;;;;;;;;22.16;51.50;100398.78;4967409;28;4161;-66
2023/07/23 10:02:54;;;;;;;;;;;;;;;22.17;51.85;100391.63;4974077;28;4128;-66
2023/07/23 10:05:20;;;;;;;;;;;;;;;22.21;51.27;100399.69;4969854;28;4171;-66
2023/07/23 10:07:47;;;;;;;;;;;;;;;22.20;51.15;100392.41;4983294;28;4213;-66
2023/07/23 10:10:14;;;;;;;;;;;;;;;22.21;51.20;100387.38;4968280;28;4049;-66
2023/07/23 10:12:41;;;;;;;;;;;;;;;22.22;51.10;100383.09;4967788;28;4083;-67
2023/07/23 10:15:07;;;;;;;;;;;;;;;22.26;50.83;100386.13;4987305;28;4014;-67
2023/07/23 10:17:38;;;;;;;;;;;;;;;22.34;50.26;100389.28;4967078;28;4093;-69
2023/07/23 10:20:05;;;;;;;;;;;;;;;22.33;50.30;100379.13;4980580;28;4173;-70
2023/07/23 10:22:32;;;;;;;;;;;;;;;22.33;50.43;100370.47;4984614;28;4150;-70
2023/07/23 10:24:58;;;;;;;;;;;;;;;22.30;50.21;100372.56;4965089;28;4216;-71
2023/07/23 10:27:24;;;;;;;;;;;;;;;22.27;50.23;100370.31;4969510;28;4258;-71
2023/07/23 10:30:10;;;;;;;;;;;;;;;22.25;50.64;100370.97;4970463;28;4197;-70
2023/07/23 10:32:37;;;;;;;;;;;;;;;22.28;50.32;100358.06;4963133;28;4145;-67
2023/07/23 10:35:03;;;;;;;;;;;;;;;22.28;50.49;100357.34;4963521;28;4180;-70
2023/07/23 10:37:30;;;;;;;;;;;;;;;22.28;50.67;100348.69;4963624;28;4165;-70
2023/07/23 10:39:58;;;;;;;;;;;;;;;22.36;50.19;100346.06;4963420;28;4211;-71
2023/07/23 10:42:28;;;;;;;;;;;;;;;22.33;50.96;100347.41;4963011;28;4199;-69
2023/07/23 10:45:11;;;;;;;;;;;;;;;22.31;50.68;100338.69;4966836;28;4420;-73
2023/07/23 10:47:38;;;;;;;;;;;;;;;22.33;50.83;100335.88;4958032;28;4151;-75
2023/07/23 10:50:11;;;;;;;;;;;;;;;22.34;51.02;100337.34;4961786;28;4163;-69
2023/07/23 10:52:37;;;;;;;;;;;;;;;22.35;51.13;100339.53;4966731;28;4133;-68
2023/07/23 10:55:04;;;;;;;;;;;;;;;22.38;51.13;100340.34;4966858;28;4148;-70
2023/07/23 10:57:30;;;;;;;;;;;;;;;22.43;50.68;100333.28;4964731;28;4048;-68
2023/07/23 10:59:56;;;;;;;;;;;;;;;22.44;50.75;100316.72;4968236;28;4059;-68
2023/07/23 11:02:26;;;;;;;;;;;;;;;22.43;50.68;100310.22;4967991;28;4033;-68
2023/07/23 11:04:57;;;;;;;;;;;;;;;22.47;50.76;100310.34;4964207;28;4086;-69
2023/07/23 11:07:27;;;;;;;;;;;;;;;22.53;50.62;100301.84;4964640;28;4164;-67
2023/07/23 11:09:56;;;;;;;;;;;;;;;22.56;51.04;100306.28;4967495;28;4112;-71
2023/07/23 11:12:22;;;;;;;;;;;;;;;23.49;48.89;100288.50;4972632;28;4125;-68
2023/07/23 11:14:50;;;;;;;;;;;;;;;23.04;50.36;100293.13;4973740;28;4283;-70
2023/07/23 11:17:16;;;;;;;;;;;;;;;22.84;50.42;100288.28;4979326;28;4228;-68
2023/07/23 11:19:46;;;;;;;;;;;;;;;22.95;56.37;100281.34;4961429;28;4270;-66
2023/07/23 11:22:13;;;;;;;;;;;;;;;22.84;52.36;100281.75;4958794;28;4068;-79
2023/07/23 11:24:39;;;;;;;;;;;;;;;22.81;51.86;100275.19;4961824;28;4228;-76
2023/07/23 11:27:05;;;;;;;;;;;;;;;22.80;51.41;100274.44;4973713;28;4071;-74
2023/07/23 11:29:32;;;;;;;;;;;;;;;22.88;51.87;100276.81;4966098;28;4210;-73
2023/07/23 11:32:01;;;;;;;;;;;;;;;22.88;50.50;100271.03;4968582;28;3964;-74
2023/07/23 11:34:27;;;;;;;;;;;;;;;22.92;50.58;100265.38;4963709;28;4364;-74
2023/07/23 11:36:55;;;;;;;;;;;;;;;22.97;49.52;100269.09;4964678;28;4129;-74
2023/07/23 11:39:24;;;;;;;;;;;;;;;23.05;49.54;100259.97;4966549;28;4159;-74
2023/07/23 11:41:50;;;;;;;;;;;;;;;23.02;49.25;100267.09;4969351;28;4921;-76
2023/07/23 11:44:16;;;;;;;;;;;;;;;23.10;47.71;100256.50;4965031;28;4189;-77
2023/07/23 11:46:43;;;;;;;;;;;;;;;23.09;49.19;100251.38;4965077;28;4147;-76
2023/07/23 11:49:10;;;;;;;;;;;;;;;22.97;49.39;100246.72;4968388;28;4258;-70
2023/07/23 11:51:37;;;;;;;;;;;;;;;22.95;48.96;100251.72;4965259;28;4243;-70
2023/07/23 11:54:10;;;;;;;;;;;;;;;22.91;49.60;100252.38;4966620;28;4041;-70
2023/07/23 11:56:45;;;;;;;;;;;;;;;22.88;49.65;100233.50;4964609;28;4484;-70
2023/07/23 11:59:12;;;;;;;;;;;;;;;22.85;49.62;100231.25;4965617;28;4067;-69
2023/07/23 12:01:41;;;;;;;;;;;;;;;22.84;49.69;100230.53;4967063;28;4149;-69
2023/07/23 12:04:08;;;;;;;;;;;;;;;22.83;49.30;100223.28;4968419;28;4097;-68
2023/07/23 12:06:34;;;;;;;;;;;;;;;22.83;49.66;100223.28;4969121;28;4184;-69
2023/07/23 12:09:02;;;;;;;;;;;;;;;22.82;49.78;100216.03;4969705;28;4201;-68
2023/07/23 12:11:32;;;;;;;;;;;;;;;22.80;49.88;100213.09;4988011;28;4542;-68
2023/07/23 12:14:02;;;;;;;;;;;;;;;22.79;49.87;100202.97;4989339;28;3897;-69
2023/07/23 12:16:38;;;;;;;;;;;;;;;22.79;49.91;100200.06;4973182;28;4059;-69
2023/07/23 12:19:06;;;;;;;;;;;;;;;22.78;49.80;100204.38;4971643;28;4254;-68
2023/07/23 12:21:39;;;;;;;;;;;;;;;22.77;50.07;100208.72;4973461;28;4300;-68
2023/07/23 12:24:16;;;;;;;;;;;;;;;22.76;50.07;100201.44;4974420;28;4179;-68
2023/07/23 12:26:43;;;;;;;;;;;;;;;22.75;50.30;100197.09;4973241;28;4197;-68
2023/07/23 12:29:10;;;;;;;;;;;;;;;22.74;50.47;100199.22;4975884;28;6215;-68
2023/07/23 12:31:41;;;;;;;;;;;;;;;22.74;50.38;100186.97;4970978;28;4175;-69
2023/07/23 12:34:08;;;;;;;;;;;;;;;22.73;50.40;100185.50;4971754;28;4194;-68
2023/07/23 12:36:34;;;;;;;;;;;;;;;22.73;50.20;100191.28;4969237;28;3955;-68
2023/07/23 12:39:02;;;;;;;;;;;;;;;22.73;50.24;100182.63;4970841;28;4322;-68
2023/07/23 12:41:29;;;;;;;;;;;;;;;22.73;50.52;100180.47;4972997;28;4049;-68
2023/07/23 12:43:55;;;;;;;;;;;;;;;22.72;50.36;100189.78;4973321;28;4129;-68
2023/07/23 12:46:21;;;;;;;;;;;;;;;22.71;50.69;100186.19;4968851;28;3937;-68